Main page
METAR-TAF:

METAR-TAF

Airports :

Harry Mwanga Nkumbula International Airport

Livingstone, Zambia

latitude: 17-49-18S, longitude: 025-49-22E, elevation: 991 m

METAR: missing

Time: 02:17 (00:17 UTC)

Forecast

The report was made 8 hours and 17 minutes ago, at 16:00 UTC
Forecast valid from 23 at 18 UTC to 24 at 24 UTC
Wind 10 kt from the East/Northeast
Visibility 10 km or more
no clouds below 1500 m and no cumulonimbus
Becoming
from 24 at 06 UTC to 24 at 08 UTC
Wind 10 kt from the East with gusts up to 15 kt
Becoming
from 24 at 12 UTC to 24 at 14 UTC
Wind 10 kt from the East/Southeast
Becoming
from 24 at 18 UTC to 24 at 20 UTC
Wind 5 kt from the South/Southeast

TAF: FLHN 231600Z 2318/2424 07010KT CAVOK BECMG 2406/2408 09010G15KT BECMG 2412/2414 12010KT BECMG 2418/2420 15005KT

Weather observations and forecasts of more than 4000 airports (METAR and TAF reports).

The available stations are represented by yellow and red dots on the map.

Hover mouse over dot to see the name of the station.

Then click to see weather observations and forecasts.

To change the map : click on the green buttons with a black cross to zoom in, on the green button with a dash to zoom out, or on the green arrows for adjacent maps.


METAR-TAF: